Time;durP1;ratioP1;P1;durP2;ratioP2;P2;SDS_P1;SDS_P2;PMS_P1;PMS_P2;Temp;Humidity;BMP_temperature;BMP_pressure;BME280_temperature;BME280_humidity;BME280_pressure;Samples;Min_cycle;Max_cycle;Signal;HPM_P1;HPM_P2
2022/05/02 00:00:45;;;;;;;1.57;1.47;;;9.20;99.90;;;;;;5068254;28;20460;-91
2022/05/02 00:03:13;;;;;;;5.03;2.13;;;9.20;99.90;;;;;;5068238;28;20523;-91
2022/05/02 00:05:42;;;;;;;2.20;2.07;;;9.20;99.90;;;;;;5067774;28;20448;-91
2022/05/02 00:08:09;;;;;;;2.77;2.57;;;9.20;99.90;;;;;;5068373;28;21126;-91
2022/05/02 00:10:37;;;;;;;2.63;2.43;;;9.20;99.90;;;;;;5085912;28;20499;-91
2022/05/02 00:13:06;;;;;;;1.97;1.83;;;9.20;99.90;;;;;;5072632;28;20981;-91
2022/05/02 00:15:33;;;;;;;2.43;1.80;;;9.20;99.90;;;;;;5072178;28;20531;-91
2022/05/02 00:18:00;;;;;;;2.67;2.47;;;9.30;99.90;;;;;;5070065;28;20497;-91
2022/05/02 00:20:29;;;;;;;4.17;3.10;;;9.30;99.90;;;;;;5083636;28;20934;-91
2022/05/02 00:22:58;;;;;;;3.17;2.83;;;9.20;99.90;;;;;;5066464;28;20450;-91
2022/05/02 00:25:26;;;;;;;2.60;2.40;;;9.20;99.90;;;;;;5069025;28;20515;-91
2022/05/02 00:27:53;;;;;;;2.27;1.77;;;9.20;99.90;;;;;;5064937;28;20962;-91
2022/05/02 00:30:20;;;;;;;3.23;2.47;;;9.20;99.90;;;;;;5068056;28;20471;-91
2022/05/02 00:32:47;;;;;;;2.73;2.10;;;9.30;99.90;;;;;;5067275;28;20526;-91
2022/05/02 00:35:15;;;;;;;3.90;2.70;;;9.30;99.90;;;;;;5069066;28;20561;-91
2022/05/02 00:37:43;;;;;;;3.03;2.13;;;9.30;99.90;;;;;;5070819;28;20519;-91
2022/05/02 00:40:13;;;;;;;2.53;2.23;;;9.30;99.90;;;;;;5066186;28;20545;-91
2022/05/02 00:42:42;;;;;;;2.73;2.53;;;9.40;99.90;;;;;;5068483;28;20468;-91
2022/05/02 00:45:11;;;;;;;3.70;2.80;;;9.50;99.90;;;;;;5066006;28;20452;-90
2022/05/02 00:47:38;;;;;;;2.23;1.80;;;9.70;99.90;;;;;;5075398;28;21007;-91
2022/05/02 00:50:07;;;;;;;2.80;2.43;;;9.70;99.90;;;;;;5077870;28;20517;-91
2022/05/02 00:52:34;;;;;;;2.80;2.40;;;9.70;99.90;;;;;;5067545;28;20604;-91
2022/05/02 00:55:02;;;;;;;3.17;2.97;;;9.70;99.90;;;;;;5065752;28;20515;-91
2022/05/02 00:57:32;;;;;;;3.63;2.33;;;9.70;99.90;;;;;;5067312;28;20530;-91
2022/05/02 00:59:59;;;;;;;3.10;2.20;;;9.60;99.90;;;;;;5070654;28;21099;-91
2022/05/02 01:02:26;;;;;;;1.77;1.67;;;9.60;99.90;;;;;;5073723;28;20460;-91
2022/05/02 01:04:53;;;;;;;2.13;1.93;;;9.70;99.90;;;;;;5064491;28;21003;-91
2022/05/02 01:07:19;;;;;;;4.07;3.17;;;9.80;99.90;;;;;;5070457;28;20551;-91
2022/05/02 01:09:48;;;;;;;3.17;2.93;;;9.80;99.90;;;;;;5079569;28;20895;-91
2022/05/02 01:12:17;;;;;;;2.80;2.30;;;9.80;99.90;;;;;;5068909;28;20533;-92
2022/05/02 01:14:48;;;;;;;3.23;2.93;;;9.80;99.90;;;;;;5067458;28;20448;-91
2022/05/02 01:17:15;;;;;;;2.50;2.30;;;9.70;99.90;;;;;;5068517;28;20436;-91
2022/05/02 01:19:43;;;;;;;3.50;3.20;;;9.60;99.90;;;;;;5066546;28;20483;-91
2022/05/02 01:22:11;;;;;;;3.83;2.53;;;9.60;99.90;;;;;;5064324;28;20489;-91
2022/05/02 01:24:40;;;;;;;6.30;3.67;;;9.50;99.90;;;;;;5066704;28;20908;-91
2022/05/02 01:27:08;;;;;;;4.07;3.67;;;9.30;99.90;;;;;;5064529;28;20487;-89
2022/05/02 01:29:36;;;;;;;4.87;2.90;;;9.30;99.90;;;;;;5068712;28;20659;-89
2022/05/02 01:32:06;;;;;;;3.30;1.90;;;9.20;99.90;;;;;;5064735;28;20987;-89
2022/05/02 01:34:33;;;;;;;3.10;2.90;;;9.30;99.90;;;;;;5072751;28;20524;-89
2022/05/02 01:37:00;;;;;;;3.23;2.33;;;9.40;99.90;;;;;;5065698;28;20529;-89
2022/05/02 01:39:29;;;;;;;3.90;3.33;;;9.60;99.90;;;;;;5067126;28;20508;-90
2022/05/02 01:42:00;;;;;;;3.23;2.93;;;9.60;99.90;;;;;;5070862;28;20464;-89
2022/05/02 01:44:27;;;;;;;5.33;3.53;;;9.60;99.90;;;;;;5072061;28;20463;-90
2022/05/02 01:46:54;;;;;;;3.17;2.17;;;9.60;99.90;;;;;;5068236;28;20458;-89
2022/05/02 01:49:21;;;;;;;3.13;2.83;;;9.50;99.90;;;;;;5076855;28;20491;-89
2022/05/02 01:51:48;;;;;;;3.43;2.40;;;9.40;99.90;;;;;;5068561;28;21815;-89
2022/05/02 01:54:15;;;;;;;3.70;2.13;;;9.40;99.90;;;;;;5073125;28;20546;-89
2022/05/02 01:56:44;;;;;;;3.47;3.17;;;9.40;99.90;;;;;;5088287;28;20420;-89
2022/05/02 01:59:12;;;;;;;2.83;2.63;;;9.30;99.90;;;;;;5092048;28;20464;-90
2022/05/02 02:01:39;;;;;;;2.40;2.20;;;9.20;99.90;;;;;;5087509;28;20455;-90
2022/05/02 02:05:48;;;;;;;3.83;2.90;;;9.10;99.90;;;;;;5078977;28;20455;-90
2022/05/02 02:06:54;;;;;;;2.70;2.50;;;9.20;99.90;;;;;;5073256;28;20454;-90
2022/05/02 02:09:21;;;;;;;3.13;2.43;;;9.20;99.90;;;;;;5070397;28;20470;-90
2022/05/02 02:11:49;;;;;;;2.20;2.07;;;9.20;99.90;;;;;;5067400;28;20522;-90
2022/05/02 02:14:16;;;;;;;2.90;2.37;;;9.20;99.90;;;;;;5076978;28;20468;-90
2022/05/02 02:16:43;;;;;;;3.53;3.00;;;9.20;99.90;;;;;;5067605;28;20930;-90
2022/05/02 02:19:11;;;;;;;2.63;1.73;;;9.20;99.90;;;;;;5064696;28;20525;-89
2022/05/02 02:21:38;;;;;;;2.73;1.70;;;9.30;99.90;;;;;;5067123;28;20836;-90
2022/05/02 02:24:06;;;;;;;2.50;2.30;;;9.20;99.90;;;;;;5066323;28;20505;-90
2022/05/02 02:26:33;;;;;;;2.37;2.00;;;9.30;99.90;;;;;;5070343;28;20800;-89
2022/05/02 02:29:03;;;;;;;3.10;2.87;;;9.30;99.90;;;;;;5064553;28;20573;-90
2022/05/02 02:31:30;;;;;;;4.30;2.33;;;9.40;99.90;;;;;;5068136;28;20469;-90
2022/05/02 02:33:57;;;;;;;2.37;1.93;;;9.40;99.90;;;;;;5064616;28;20460;-89
2022/05/02 02:36:24;;;;;;;2.43;2.23;;;9.30;99.90;;;;;;5068660;28;20464;-89
2022/05/02 02:38:51;;;;;;;1.93;1.40;;;9.30;99.90;;;;;;5069534;28;20447;-90
2022/05/02 02:41:18;;;;;;;2.93;2.73;;;9.20;99.90;;;;;;5072100;28;20539;-90
2022/05/02 02:43:45;;;;;;;2.57;2.10;;;9.20;99.90;;;;;;5068078;28;20472;-90
2022/05/02 02:46:13;;;;;;;4.77;1.73;;;9.10;99.90;;;;;;5072065;28;20552;-90
2022/05/02 02:48:40;;;;;;;2.83;2.20;;;9.10;99.90;;;;;;5070791;28;20510;-90
2022/05/02 02:51:07;;;;;;;1.80;1.70;;;9.00;99.90;;;;;;5070498;28;20984;-89
2022/05/02 02:53:34;;;;;;;2.40;2.23;;;9.00;99.90;;;;;;5069882;28;20479;-90
2022/05/02 02:56:01;;;;;;;2.30;1.73;;;9.00;99.90;;;;;;5070579;28;20471;-90
2022/05/02 02:58:28;;;;;;;1.67;1.33;;;8.90;99.90;;;;;;5071202;28;20460;-90
2022/05/02 03:00:55;;;;;;;2.63;2.40;;;8.80;99.90;;;;;;5069160;28;20541;-90
2022/05/02 03:03:24;;;;;;;2.37;2.20;;;8.90;99.90;;;;;;5071100;28;20448;-90
2022/05/02 03:06:02;;;;;;;1.60;1.43;;;8.90;99.90;;;;;;5068362;28;20477;-90
2022/05/02 03:08:30;;;;;;;2.20;2.00;;;8.80;99.90;;;;;;5080418;28;21157;-90
2022/05/02 03:10:58;;;;;;;1.90;1.77;;;8.80;99.90;;;;;;5074165;28;20562;-91
2022/05/02 03:13:25;;;;;;;3.07;2.33;;;8.80;99.90;;;;;;5067646;28;20948;-90
2022/05/02 03:15:52;;;;;;;5.13;1.93;;;8.80;99.90;;;;;;5068309;28;20463;-90
2022/05/02 03:18:19;;;;;;;1.70;1.60;;;8.80;99.90;;;;;;5069877;28;20440;-89
2022/05/02 03:20:48;;;;;;;2.00;1.90;;;8.90;99.90;;;;;;5067623;28;20803;-90
2022/05/02 03:23:15;;;;;;;1.87;1.77;;;8.80;99.90;;;;;;5066683;28;20528;-90
2022/05/02 03:25:42;;;;;;;3.00;2.47;;;8.80;99.90;;;;;;5069849;28;20471;-90
2022/05/02 03:28:09;;;;;;;2.03;1.20;;;8.80;99.90;;;;;;5067863;28;20491;-90
2022/05/02 03:30:36;;;;;;;1.57;1.40;;;8.90;99.90;;;;;;5069413;28;20525;-90
2022/05/02 03:33:03;;;;;;;6.37;3.57;;;8.90;99.90;;;;;;5068706;28;20460;-90
2022/05/02 03:35:30;;;;;;;2.17;1.97;;;8.90;99.90;;;;;;5068968;28;20461;-89
2022/05/02 03:37:58;;;;;;;2.70;1.90;;;9.00;99.90;;;;;;5070902;28;20529;-90
2022/05/02 03:40:25;;;;;;;1.90;1.73;;;9.00;99.90;;;;;;5070473;28;20947;-90
2022/05/02 03:42:53;;;;;;;1.50;1.23;;;9.00;99.90;;;;;;5068861;28;20505;-90
2022/05/02 03:45:19;;;;;;;2.37;2.17;;;9.10;99.90;;;;;;5066766;28;20463;-90
2022/05/02 03:47:46;;;;;;;2.07;1.97;;;9.20;99.90;;;;;;5070054;28;20491;-90
2022/05/02 03:50:13;;;;;;;2.60;2.27;;;9.20;99.90;;;;;;5066840;28;20440;-90
2022/05/02 03:52:40;;;;;;;2.87;2.67;;;9.20;99.90;;;;;;5068418;28;20476;-90
2022/05/02 03:55:09;;;;;;;2.67;1.60;;;9.10;99.90;;;;;;5067134;28;20463;-90
2022/05/02 03:57:36;;;;;;;1.87;1.77;;;9.00;99.90;;;;;;5068884;28;20940;-90
2022/05/02 04:00:04;;;;;;;1.97;1.70;;;9.00;99.90;;;;;;5065819;28;20926;-90
2022/05/02 04:02:31;;;;;;;2.63;2.40;;;8.90;99.90;;;;;;5068362;28;20501;-89
2022/05/02 04:04:59;;;;;;;2.50;2.30;;;8.90;99.90;;;;;;5067562;28;20471;-90
2022/05/02 04:07:26;;;;;;;1.47;1.33;;;8.80;99.90;;;;;;5071933;28;20919;-90
2022/05/02 04:09:53;;;;;;;1.33;1.23;;;8.80;99.90;;;;;;5078699;28;20557;-90
2022/05/02 04:12:21;;;;;;;2.27;1.93;;;8.90;99.90;;;;;;5067196;28;20440;-90
2022/05/02 04:14:48;;;;;;;3.03;2.07;;;8.90;99.90;;;;;;5070013;28;20486;-90
2022/05/02 04:17:15;;;;;;;2.20;1.53;;;8.90;99.90;;;;;;5068864;28;20489;-90
2022/05/02 04:19:42;;;;;;;3.83;1.87;;;8.90;99.90;;;;;;5068027;28;20548;-90
2022/05/02 04:22:09;;;;;;;2.80;2.60;;;8.90;99.90;;;;;;5066733;28;20525;-90
2022/05/02 04:24:36;;;;;;;2.53;1.60;;;8.90;99.90;;;;;;5067667;28;20517;-90
2022/05/02 04:27:03;;;;;;;2.43;2.33;;;9.00;99.90;;;;;;5071089;28;20463;-90
2022/05/02 04:29:31;;;;;;;2.43;1.73;;;9.10;99.90;;;;;;5069100;28;21332;-90
2022/05/02 04:31:59;;;;;;;2.70;2.43;;;9.10;99.90;;;;;;5071250;28;20466;-90
2022/05/02 04:34:26;;;;;;;2.73;2.00;;;9.20;99.90;;;;;;5067207;28;20460;-90
2022/05/02 04:36:53;;;;;;;2.80;2.33;;;9.20;99.90;;;;;;5069382;28;20494;-89
2022/05/02 04:39:20;;;;;;;2.10;1.67;;;9.20;99.90;;;;;;5067102;28;20463;-90
2022/05/02 04:41:47;;;;;;;3.03;2.10;;;9.20;99.90;;;;;;5071388;28;20521;-90
2022/05/02 04:44:14;;;;;;;2.30;1.50;;;9.30;99.90;;;;;;5073088;28;20498;-90
2022/05/02 04:46:42;;;;;;;2.93;2.73;;;9.30;99.90;;;;;;5071448;28;20466;-90
2022/05/02 04:49:09;;;;;;;1.70;1.60;;;9.40;99.90;;;;;;5065569;28;21232;-90
2022/05/02 04:51:36;;;;;;;3.50;2.37;;;9.30;99.90;;;;;;5070504;28;20470;-90
2022/05/02 04:54:03;;;;;;;3.23;2.47;;;9.40;99.90;;;;;;5081554;28;20787;-90
2022/05/02 04:56:30;;;;;;;2.73;2.53;;;9.60;99.90;;;;;;5067579;28;20460;-90
2022/05/02 04:58:57;;;;;;;6.00;2.67;;;9.70;99.90;;;;;;5069352;28;20517;-90
2022/05/02 05:01:24;;;;;;;2.80;2.20;;;9.80;99.90;;;;;;5063193;28;20455;-90
2022/05/02 05:03:53;;;;;;;2.13;1.73;;;9.90;99.90;;;;;;5069235;28;20459;-90
2022/05/02 05:06:20;;;;;;;2.40;2.10;;;10.10;99.90;;;;;;5067967;28;20523;-89
2022/05/02 05:08:47;;;;;;;2.60;2.40;;;10.00;99.90;;;;;;5071302;28;20529;-89
2022/05/02 05:11:28;;;;;;;3.33;1.23;;;10.10;99.90;;;;;;5064567;28;20477;-90
2022/05/02 05:17:02;;;;;;;1.67;1.57;;;10.00;99.90;;;;;;5070486;28;20454;-91
2022/05/02 05:19:46;;;;;;;2.47;2.30;;;10.10;99.90;;;;;;5073038;28;20463;-91
2022/05/02 05:22:24;;;;;;;1.80;1.63;;;10.20;99.90;;;;;;5090001;28;20452;-91
2022/05/02 05:25:08;;;;;;;2.13;1.93;;;10.30;99.90;;;;;;5088395;28;20462;-90
2022/05/02 05:27:48;;;;;;;1.70;1.60;;;10.40;99.90;;;;;;5068787;28;20971;-90
2022/05/02 05:30:20;;;;;;;2.53;2.10;;;10.60;99.90;;;;;;5068466;28;20822;-90
2022/05/02 05:32:53;;;;;;;2.03;1.93;;;10.70;99.90;;;;;;5084838;28;20541;-91
2022/05/02 05:35:24;;;;;;;3.13;2.50;;;10.80;99.90;;;;;;5073335;28;20520;-90
2022/05/02 05:38:02;;;;;;;3.30;3.10;;;11.00;99.90;;;;;;5067333;28;20779;-90
2022/05/02 05:40:34;;;;;;;2.73;2.07;;;11.00;99.90;;;;;;5069392;28;20466;-90
2022/05/02 05:43:15;;;;;;;3.23;2.57;;;11.10;99.90;;;;;;5074789;28;20923;-91
2022/05/02 05:45:59;;;;;;;1.33;1.23;;;11.10;99.90;;;;;;5065361;28;20531;-90
2022/05/02 05:48:37;;;;;;;2.07;1.97;;;11.00;99.90;;;;;;5065348;28;20560;-90
2022/05/02 05:51:18;;;;;;;3.80;3.43;;;11.00;99.90;;;;;;5066974;28;20466;-90
2022/05/02 05:53:53;;;;;;;4.97;3.20;;;11.20;99.90;;;;;;5067322;28;20448;-90
2022/05/02 05:56:35;;;;;;;4.40;3.90;;;11.40;99.90;;;;;;5072885;28;20462;-90
2022/05/02 05:59:08;;;;;;;5.30;3.63;;;11.60;99.90;;;;;;5066223;28;20471;-91
2022/05/02 06:02:01;;;;;;;4.63;3.63;;;11.80;99.90;;;;;;5066824;28;20555;-90
2022/05/02 06:04:32;;;;;;;5.63;3.40;;;11.90;99.90;;;;;;5065217;28;20540;-90
2022/05/02 06:07:01;;;;;;;6.60;2.90;;;11.90;99.90;;;;;;5064410;28;20465;-89
2022/05/02 06:09:30;;;;;;;4.07;2.10;;;11.90;99.90;;;;;;5064776;28;20598;-90
2022/05/02 06:11:58;;;;;;;4.43;2.90;;;11.70;99.90;;;;;;5069985;28;20540;-90
2022/05/02 06:14:28;;;;;;;2.50;2.30;;;11.80;99.90;;;;;;5078794;28;20520;-90
2022/05/02 06:19:49;;;;;;;2.43;1.87;;;12.00;99.90;;;;;;5085109;28;20462;-90
2022/05/02 06:22:18;;;;;;;3.23;3.03;;;11.90;99.90;;;;;;5068401;28;20472;-90
2022/05/02 06:24:49;;;;;;;3.37;2.43;;;11.80;99.90;;;;;;5070447;28;20459;-90
2022/05/02 06:27:16;;;;;;;3.70;2.43;;;11.90;99.90;;;;;;5067795;28;20514;-91
2022/05/02 06:29:43;;;;;;;3.87;2.97;;;12.20;99.90;;;;;;5073238;28;20863;-90
2022/05/02 06:32:12;;;;;;;3.27;2.80;;;12.30;99.90;;;;;;5069337;28;20558;-91
2022/05/02 06:34:40;;;;;;;4.33;2.93;;;12.70;99.90;;;;;;5073590;28;20933;-90
2022/05/02 06:37:35;;;;;;;4.50;2.60;;;12.80;99.90;;;;;;5070550;28;20472;-90
2022/05/02 06:40:20;;;;;;;4.73;2.90;;;12.50;99.90;;;;;;5070412;28;20978;-90
2022/05/02 06:42:56;;;;;;;6.20;3.50;;;12.80;99.90;;;;;;5072035;28;20451;-90
2022/05/02 06:45:31;;;;;;;3.60;3.30;;;12.70;99.90;;;;;;5067602;28;20912;-90
2022/05/02 06:48:29;;;;;;;3.50;3.20;;;12.60;99.90;;;;;;5070850;28;20534;-90
2022/05/02 06:51:01;;;;;;;5.80;3.10;;;12.90;99.90;;;;;;5070124;28;20531;-90
2022/05/02 06:54:00;;;;;;;3.70;2.60;;;13.10;99.90;;;;;;5067884;28;20908;-90
2022/05/02 06:56:38;;;;;;;4.73;3.00;;;13.00;99.90;;;;;;5061571;28;20979;-90
2022/05/02 06:59:13;;;;;;;6.77;3.53;;;13.00;99.90;;;;;;5070793;28;20461;-90
2022/05/02 07:01:48;;;;;;;3.07;2.20;;;13.30;99.90;;;;;;5071105;28;21022;-90
2022/05/02 07:04:30;;;;;;;3.13;2.83;;;13.30;99.90;;;;;;5069072;28;20466;-90
2022/05/02 07:07:35;;;;;;;4.93;3.73;;;13.50;99.90;;;;;;5074295;28;20519;-90
2022/05/02 07:10:05;;;;;;;5.73;3.63;;;13.80;99.90;;;;;;5076698;28;20483;-90
2022/05/02 07:12:40;;;;;;;3.90;3.17;;;14.00;99.90;;;;;;5081610;28;20470;-89
2022/05/02 07:15:13;;;;;;;2.87;2.67;;;13.90;99.90;;;;;;5083482;28;20525;-90
2022/05/02 07:18:05;;;;;;;7.47;4.13;;;13.80;99.90;;;;;;5071837;28;20457;-90
2022/05/02 07:20:42;;;;;;;2.27;2.17;;;13.90;99.90;;;;;;5076496;28;20481;-90
2022/05/02 07:23:26;;;;;;;5.07;3.17;;;13.90;99.90;;;;;;5069015;28;20775;-90
2022/05/02 07:26:00;;;;;;;2.90;2.70;;;14.10;99.90;;;;;;5071494;28;20542;-90
2022/05/02 07:28:35;;;;;;;2.10;1.90;;;14.00;99.90;;;;;;5072136;28;20548;-90
2022/05/02 07:31:03;;;;;;;2.73;2.53;;;14.10;99.90;;;;;;5072297;28;20460;-89
2022/05/02 07:33:35;;;;;;;3.03;2.73;;;14.20;99.90;;;;;;5071237;28;20826;-90
2022/05/02 07:36:04;;;;;;;3.40;2.63;;;14.30;99.90;;;;;;5068915;28;20465;-89
2022/05/02 07:38:33;;;;;;;4.90;4.60;;;14.50;99.90;;;;;;5066471;28;20470;-90
2022/05/02 07:43:49;;;;;;;3.10;2.40;;;15.40;99.90;;;;;;5068542;28;21279;-91
2022/05/02 07:46:20;;;;;;;4.77;3.03;;;15.20;99.90;;;;;;5065815;28;20461;-90
2022/05/02 07:48:50;;;;;;;3.33;2.23;;;15.20;99.90;;;;;;5073264;28;20499;-90
2022/05/02 07:51:19;;;;;;;5.00;3.33;;;15.50;99.90;;;;;;5074717;28;20464;-91
2022/05/02 07:53:47;;;;;;;2.37;2.13;;;15.70;99.90;;;;;;5069069;28;20477;-90
2022/05/02 07:56:15;;;;;;;3.37;3.00;;;15.80;99.90;;;;;;5068733;28;20468;-90
2022/05/02 07:58:44;;;;;;;4.73;3.53;;;15.90;99.90;;;;;;5071167;28;20477;-90
2022/05/02 08:01:17;;;;;;;2.47;2.27;;;15.90;99.90;;;;;;5066661;28;20461;-91
2022/05/02 08:03:44;;;;;;;5.80;3.20;;;16.30;99.90;;;;;;5064406;28;20535;-90
2022/05/02 08:06:23;;;;;;;3.60;2.90;;;16.50;99.90;;;;;;5065413;28;20526;-90
2022/05/02 08:09:04;;;;;;;3.20;3.00;;;16.80;99.90;;;;;;5066575;28;20460;-90
2022/05/02 08:11:38;;;;;;;4.33;4.00;;;17.00;99.90;;;;;;5065345;28;20829;-90
2022/05/02 08:14:13;;;;;;;3.60;3.27;;;16.70;99.90;;;;;;5067277;28;20536;-90
2022/05/02 08:16:58;;;;;;;4.60;4.20;;;16.50;99.90;;;;;;5066557;28;20467;-90
2022/05/02 08:19:49;;;;;;;4.03;3.67;;;16.60;99.90;;;;;;5066584;28;20942;-90
2022/05/02 08:28:03;;;;;;;3.90;3.60;;;16.40;99.90;;;;;;5065898;28;21818;-91
2022/05/02 08:30:35;;;;;;;5.60;4.10;;;16.10;99.90;;;;;;5068638;28;20834;-91
2022/05/02 08:33:06;;;;;;;5.33;4.90;;;16.10;99.90;;;;;;5067330;28;20477;-91
2022/05/02 08:35:58;;;;;;;3.90;3.30;;;16.00;99.90;;;;;;5066540;28;20495;-90
2022/05/02 08:38:42;;;;;;;4.73;4.30;;;16.30;99.90;;;;;;5064713;28;20852;-91
2022/05/02 08:41:58;;;;;;;5.03;4.63;;;16.00;99.90;;;;;;5089721;28;20529;-91
2022/05/02 08:45:08;;;;;;;5.37;4.13;;;16.20;99.90;;;;;;5088258;28;20464;-89
2022/05/02 08:48:20;;;;;;;4.30;3.90;;;16.60;99.90;;;;;;5072681;28;20459;-90
2022/05/02 08:51:16;;;;;;;6.43;4.80;;;17.10;99.90;;;;;;5066204;28;20491;-90
2022/05/02 08:54:41;;;;;;;4.50;3.60;;;17.50;99.70;;;;;;5048368;28;20461;-90
2022/05/02 08:57:40;;;;;;;4.00;3.60;;;16.90;99.80;;;;;;5070056;28;20469;-92
2022/05/02 09:00:09;;;;;;;6.97;3.83;;;17.00;99.90;;;;;;5074719;28;20512;-92
2022/05/02 09:03:07;;;;;;;3.40;2.83;;;16.80;99.30;;;;;;5068715;28;20473;-91
2022/05/02 09:06:06;;;;;;;3.60;3.30;;;16.80;99.10;;;;;;5069952;28;20855;-92
2022/05/02 09:09:04;;;;;;;5.10;3.73;;;16.40;99.40;;;;;;5054260;28;20468;-92
2022/05/02 09:11:40;;;;;;;3.93;3.63;;;16.50;99.90;;;;;;5067110;28;20494;-91
2022/05/02 09:14:50;;;;;;;6.97;5.40;;;16.70;98.90;;;;;;5064215;28;20615;-90
2022/05/02 09:17:54;;;;;;;6.00;3.83;;;16.70;99.10;;;;;;5055460;28;20861;-90
2022/05/02 09:21:00;;;;;;;6.07;4.03;;;16.70;99.90;;;;;;5064056;28;20518;-91
2022/05/02 09:24:24;;;;;;;3.97;3.67;;;16.70;99.20;;;;;;5065049;28;20543;-91
2022/05/02 09:27:21;;;;;;;5.80;4.10;;;16.90;99.70;;;;;;5054749;28;20478;-91
2022/05/02 09:30:22;;;;;;;3.40;3.20;;;16.50;98.90;;;;;;5065680;28;20485;-91
2022/05/02 09:33:05;;;;;;;5.33;4.30;;;16.60;99.50;;;;;;5066454;28;20505;-92
2022/05/02 09:35:34;;;;;;;3.77;3.37;;;16.70;99.40;;;;;;5066355;28;20981;-91
2022/05/02 09:38:16;;;;;;;5.33;3.90;;;16.80;99.70;;;;;;5070285;28;20471;-90
2022/05/02 09:40:44;;;;;;;3.47;3.23;;;17.00;99.90;;;;;;5067320;28;21145;-90
2022/05/02 09:49:50;;;;;;;3.80;3.00;;;17.40;98.90;;;;;;5064142;28;20458;-89
2022/05/02 09:52:25;;;;;;;4.50;4.10;;;17.70;99.90;;;;;;5063233;28;20471;-90
2022/05/02 09:58:12;;;;;;;5.73;3.90;;;18.30;97.40;;;;;;5067883;28;20499;-89
2022/05/02 10:01:11;;;;;;;3.53;3.20;;;18.50;96.30;;;;;;5067218;28;20476;-89
2022/05/02 10:03:50;;;;;;;4.77;3.70;;;18.50;95.30;;;;;;5061734;28;20539;-89
2022/05/02 10:06:27;;;;;;;3.00;2.80;;;19.10;95.80;;;;;;5064576;28;20957;-90
2022/05/02 10:09:00;;;;;;;3.37;3.07;;;19.00;94.40;;;;;;5069890;28;20465;-90
2022/05/02 10:11:50;;;;;;;4.10;3.70;;;19.10;95.00;;;;;;5071560;28;20474;-90
2022/05/02 10:14:35;;;;;;;4.10;3.43;;;19.10;95.80;;;;;;5063210;28;20574;-90
2022/05/02 10:17:07;;;;;;;5.13;3.83;;;18.90;94.80;;;;;;5067209;28;20460;-90
2022/05/02 10:20:01;;;;;;;4.60;3.67;;;19.10;94.50;;;;;;5061173;28;20583;-89
2022/05/02 10:22:32;;;;;;;2.53;2.33;;;19.50;94.80;;;;;;5064416;28;20463;-90
2022/05/02 10:25:09;;;;;;;5.20;2.47;;;19.40;92.60;;;;;;5067416;28;20466;-90
2022/05/02 10:27:45;;;;;;;3.53;2.67;;;18.70;93.00;;;;;;5066043;28;20564;-90
2022/05/02 10:30:14;;;;;;;2.60;2.40;;;18.40;93.70;;;;;;5067677;28;20702;-89
2022/05/02 10:32:52;;;;;;;4.27;2.80;;;18.20;94.00;;;;;;5066880;28;20523;-90
2022/05/02 10:35:21;;;;;;;5.43;2.20;;;18.20;94.50;;;;;;5062892;28;20583;-90
2022/05/02 10:37:56;;;;;;;3.00;2.70;;;18.00;93.50;;;;;;5069380;28;20455;-90
2022/05/02 10:40:35;;;;;;;2.23;2.07;;;18.20;94.50;;;;;;5067040;28;20569;-90
2022/05/02 10:43:05;;;;;;;2.80;2.60;;;18.30;93.20;;;;;;5066720;28;20499;-89
2022/05/02 10:45:37;;;;;;;3.17;2.37;;;18.10;92.60;;;;;;5068156;28;20501;-89
2022/05/02 10:48:15;;;;;;;2.10;1.90;;;18.10;93.60;;;;;;5075716;28;20525;-90
2022/05/02 10:50:50;;;;;;;2.93;2.07;;;18.00;93.30;;;;;;5072196;28;20487;-90
2022/05/02 10:53:52;;;;;;;1.83;1.70;;;18.10;92.20;;;;;;5060949;28;20556;-90
2022/05/02 10:56:22;;;;;;;1.73;1.63;;;17.90;93.50;;;;;;5067416;28;20471;-90
2022/05/02 10:58:50;;;;;;;2.17;2.00;;;18.00;93.00;;;;;;5077751;28;20528;-91
2022/05/02 11:01:42;;;;;;;1.77;1.67;;;18.00;93.20;;;;;;5074802;28;20467;-92
2022/05/02 11:04:22;;;;;;;2.03;1.70;;;17.90;93.70;;;;;;5068653;28;20448;-91
2022/05/02 11:07:05;;;;;;;2.10;1.67;;;17.90;94.00;;;;;;5071738;28;20482;-91
2022/05/02 11:09:40;;;;;;;2.83;2.63;;;17.80;93.90;;;;;;5073372;28;20471;-91
2022/05/02 11:12:15;;;;;;;2.80;2.50;;;17.50;93.90;;;;;;5063115;28;21020;-91
2022/05/02 11:14:51;;;;;;;2.17;1.73;;;17.20;94.20;;;;;;5068304;28;20470;-91
2022/05/02 11:17:27;;;;;;;3.50;2.27;;;17.60;95.20;;;;;;5069733;28;20911;-91
2022/05/02 11:23:10;;;;;;;2.50;2.10;;;18.00;95.60;;;;;;5062545;28;21086;-90
2022/05/02 11:25:45;;;;;;;3.83;3.00;;;18.20;92.40;;;;;;5062976;28;20468;-90
2022/05/02 11:28:24;;;;;;;2.20;2.10;;;18.50;92.70;;;;;;5067941;28;20532;-89
2022/05/02 11:30:57;;;;;;;2.30;2.17;;;18.60;93.00;;;;;;5076825;28;20491;-89
2022/05/02 11:33:34;;;;;;;2.73;2.47;;;18.80;93.00;;;;;;5066399;28;20477;-89
2022/05/02 11:36:03;;;;;;;2.03;1.93;;;19.20;92.80;;;;;;5067019;28;20467;-90
2022/05/02 11:38:37;;;;;;;2.80;1.83;;;19.90;92.70;;;;;;5064938;28;20656;-90
2022/05/02 11:41:12;;;;;;;2.13;1.60;;;20.40;91.00;;;;;;5079575;28;20469;-89
2022/05/02 11:43:39;;;;;;;1.47;1.37;;;20.60;89.80;;;;;;5064242;28;20469;-92
2022/05/02 11:46:18;;;;;;;2.90;2.00;;;20.50;88.00;;;;;;5066152;28;20475;-92
2022/05/02 11:49:24;;;;;;;1.50;1.40;;;20.50;86.40;;;;;;5087444;28;20569;-91
2022/05/02 11:51:53;;;;;;;1.53;1.40;;;20.10;88.70;;;;;;5070715;28;20485;-89
2022/05/02 11:54:36;;;;;;;1.00;0.90;;;20.10;90.40;;;;;;5065101;28;20470;-90
2022/05/02 11:57:22;;;;;;;1.47;1.33;;;20.00;85.90;;;;;;5075313;28;20453;-90
2022/05/02 11:59:58;;;;;;;1.73;0.90;;;19.90;87.40;;;;;;5088761;28;20473;-90
2022/05/02 12:02:46;;;;;;;3.50;1.03;;;20.10;80.00;;;;;;5105142;28;20450;-90
2022/05/02 12:05:32;;;;;;;1.20;0.90;;;19.90;81.90;;;;;;5098952;28;20871;-89
2022/05/02 12:08:02;;;;;;;1.27;1.17;;;20.00;83.10;;;;;;5092198;28;20948;-89
2022/05/02 12:10:38;;;;;;;1.10;0.90;;;19.70;86.90;;;;;;5079632;28;20494;-89
2022/05/02 12:13:06;;;;;;;1.17;0.80;;;19.40;80.00;;;;;;5083525;28;20500;-90
2022/05/02 12:15:34;;;;;;;1.00;0.73;;;19.80;80.50;;;;;;5085988;28;20462;-90
2022/05/02 12:18:06;;;;;;;1.97;0.73;;;20.00;81.20;;;;;;5086294;28;20980;-90
2022/05/02 12:20:38;;;;;;;0.80;0.80;;;20.30;81.20;;;;;;5064987;28;20560;-89
2022/05/02 12:23:08;;;;;;;1.17;0.90;;;20.10;80.20;;;;;;5066847;28;21135;-90
2022/05/02 12:25:36;;;;;;;0.70;0.70;;;20.30;80.10;;;;;;5064314;28;20585;-90
2022/05/02 12:28:04;;;;;;;1.30;0.80;;;20.30;77.00;;;;;;5066429;28;20531;-89
2022/05/02 12:30:32;;;;;;;0.60;0.60;;;20.30;80.50;;;;;;5074884;28;20580;-90
2022/05/02 12:33:03;;;;;;;1.10;1.00;;;20.00;78.10;;;;;;5072103;28;20461;-89
2022/05/02 12:35:40;;;;;;;0.80;0.80;;;19.80;78.90;;;;;;5067697;28;20473;-90
2022/05/02 12:38:24;;;;;;;0.70;0.70;;;20.20;81.80;;;;;;5066086;28;20523;-89
2022/05/02 12:40:57;;;;;;;1.10;1.10;;;20.60;79.30;;;;;;5068374;28;20505;-90
2022/05/02 12:43:29;;;;;;;0.90;0.60;;;20.30;82.50;;;;;;5083690;28;20472;-90
2022/05/02 12:45:57;;;;;;;0.60;0.60;;;20.50;77.10;;;;;;5085700;28;20545;-90
2022/05/02 12:48:29;;;;;;;1.20;0.60;;;20.50;75.00;;;;;;5084970;28;20450;-89
2022/05/02 12:50:59;;;;;;;1.10;0.90;;;20.40;75.00;;;;;;5065530;28;20549;-90
2022/05/02 12:56:13;;;;;;;0.60;0.60;;;20.50;77.10;;;;;;5065958;28;20474;-90
2022/05/02 13:01:41;;;;;;;0.93;0.77;;;20.60;77.70;;;;;;5081831;28;20624;-90
2022/05/02 13:04:16;;;;;;;1.00;0.70;;;20.70;76.30;;;;;;5074762;28;20474;-90
2022/05/02 13:06:45;;;;;;;0.93;0.90;;;20.40;74.00;;;;;;5064891;28;20470;-89
2022/05/02 13:09:16;;;;;;;1.03;0.60;;;20.60;71.60;;;;;;5065803;28;20463;-89
2022/05/02 13:11:44;;;;;;;0.90;0.80;;;20.80;75.50;;;;;;5076578;28;20478;-90
2022/05/02 13:14:22;;;;;;;1.73;0.70;;;21.00;72.30;;;;;;5065712;28;20489;-90
2022/05/02 13:16:49;;;;;;;0.87;0.87;;;20.90;74.70;;;;;;5065911;28;20466;-90
2022/05/02 13:19:17;;;;;;;1.07;0.70;;;20.60;74.80;;;;;;5079503;28;20474;-89
2022/05/02 13:21:56;;;;;;;0.60;0.50;;;20.50;76.30;;;;;;5084312;28;20450;-90
2022/05/02 13:24:23;;;;;;;2.33;0.80;;;20.10;74.10;;;;;;5079870;28;20546;-90
2022/05/02 13:27:14;;;;;;;0.70;0.60;;;20.10;75.80;;;;;;5085799;28;20518;-90
2022/05/02 13:29:55;;;;;;;1.20;1.10;;;20.10;78.30;;;;;;5070177;28;20553;-90
2022/05/02 13:32:25;;;;;;;1.07;1.07;;;19.90;78.40;;;;;;5064298;28;20972;-90
2022/05/02 13:35:10;;;;;;;1.00;0.90;;;19.80;78.70;;;;;;5064054;28;20506;-90
2022/05/02 13:37:54;;;;;;;1.63;1.00;;;19.60;81.30;;;;;;5062804;28;20456;-90
2022/05/02 13:40:22;;;;;;;0.80;0.53;;;19.30;80.20;;;;;;5064862;28;20460;-90
2022/05/02 13:42:53;;;;;;;0.50;0.40;;;18.90;78.80;;;;;;5063404;28;20528;-90
2022/05/02 13:45:32;;;;;;;0.90;0.50;;;18.70;78.00;;;;;;5067209;28;20607;-90
2022/05/02 13:48:12;;;;;;;0.70;0.60;;;18.60;79.00;;;;;;5066085;28;20444;-90
2022/05/02 13:50:42;;;;;;;0.67;0.50;;;18.30;80.50;;;;;;5063413;28;20922;-90
2022/05/02 13:53:22;;;;;;;0.43;0.40;;;18.40;81.10;;;;;;5068818;28;20462;-90
2022/05/02 13:55:58;;;;;;;0.80;0.50;;;18.20;83.30;;;;;;5072658;28;20452;-90
2022/05/02 13:58:38;;;;;;;0.50;0.43;;;18.20;84.70;;;;;;5082284;28;20630;-90